Salt Lake City, Utah
Traffic Map
Current Weather Conditions
Salt Lake City, Utah
Broken Clouds
Broken Clouds
14°
Feels Like: 14°
Wind Chill: 14° Ceiling: 24000
Heat Index: 14° Visibility: 10mi
Dew Point: -7° Wind: 12mph
Humidity: 23% Direction: 150° (SSE)
Pressure: 29.98in Gusts: 0mph
Raw Report DataKSLC 281753Z 15010KT 10SM FEW140 SCT180 BKN240 14/M07 A2998 RMK AO2 SLP131 T01391072 10139 20056 58005
Traffic Incident Summary
Active as of:
Severity:
Category:
InformationThere was an issue retrieving the traffic information for this location. Please try a different location or try again shortly.
Advertisements
Track Severe Weather on mobile